TW-0028 weather

Taipei Veterans’ General Helipad
Taipei, Taipei (municipality), Taiwan

Public forecast

Using degrees Celsius for public forecast. Weather courtesy of forecast.io.

Closest aviation weather report (METAR) to Taipei Veterans’ General Helipad

Closest report is Taipei Songshan Airport, 3.5 nm (6.5 km) SSE. Retrieved 2020/01/27 17:00 UTC (57 minutes ago):

RCSS 271700Z 07006KT 030V100 9999 FEW012 BKN022 BKN035 15/11 Q1016 NOSIG RMK A3001

Closest aviation forecast (TAF) to Taipei Veterans’ General Helipad

Closest forecast is Taipei Songshan Airport, 3.5 nm (6.5 km) SSE. Retrieved 2020/01/27 12:00 UTC (6 hours ago):

TAF RCSS 271100Z 2712/2812 10005KT 9999 FEW016 BKN032 TEMPO 2717/2724 FEW010 BKN020 TEMPO 2802/2809 29007KT FEW010 BKN020